sensor_id;sensor_type;location;lat;lon;timestamp;P1;durP1;ratioP1;P2;durP2;ratioP2
3341;SDS011;1684;50.748;6.154;2022-12-29T00:01:27;1.93;;;0.83;;
3341;SDS011;1684;50.748;6.154;2022-12-29T00:03:56;2.10;;;0.70;;
3341;SDS011;1684;50.748;6.154;2022-12-29T00:06:26;2.10;;;0.90;;
3341;SDS011;1684;50.748;6.154;2022-12-29T00:08:55;2.40;;;0.97;;
3341;SDS011;1684;50.748;6.154;2022-12-29T00:11:24;2.40;;;0.90;;
3341;SDS011;1684;50.748;6.154;2022-12-29T00:13:53;1.80;;;0.60;;
3341;SDS011;1684;50.748;6.154;2022-12-29T00:16:40;1.90;;;0.70;;
3341;SDS011;1684;50.748;6.154;2022-12-29T00:19:09;2.53;;;1.00;;
3341;SDS011;1684;50.748;6.154;2022-12-29T00:22:00;2.17;;;0.80;;
3341;SDS011;1684;50.748;6.154;2022-12-29T00:24:46;2.50;;;0.77;;
3341;SDS011;1684;50.748;6.154;2022-12-29T00:27:32;2.67;;;0.80;;
3341;SDS011;1684;50.748;6.154;2022-12-29T00:30:18;2.50;;;0.70;;
3341;SDS011;1684;50.748;6.154;2022-12-29T00:33:08;2.00;;;0.53;;
3341;SDS011;1684;50.748;6.154;2022-12-29T00:35:57;1.93;;;0.67;;
3341;SDS011;1684;50.748;6.154;2022-12-29T00:38:28;2.17;;;0.87;;
3341;SDS011;1684;50.748;6.154;2022-12-29T00:41:15;3.03;;;0.80;;
3341;SDS011;1684;50.748;6.154;2022-12-29T00:44:01;2.57;;;1.10;;
3341;SDS011;1684;50.748;6.154;2022-12-29T00:46:32;2.47;;;1.07;;
3341;SDS011;1684;50.748;6.154;2022-12-29T00:49:01;2.60;;;0.80;;
3341;SDS011;1684;50.748;6.154;2022-12-29T00:51:48;1.97;;;0.63;;
3341;SDS011;1684;50.748;6.154;2022-12-29T00:54:18;4.00;;;0.93;;
3341;SDS011;1684;50.748;6.154;2022-12-29T00:56:46;2.40;;;0.90;;
3341;SDS011;1684;50.748;6.154;2022-12-29T00:59:15;2.20;;;0.80;;
3341;SDS011;1684;50.748;6.154;2022-12-29T01:01:43;2.00;;;0.80;;
3341;SDS011;1684;50.748;6.154;2022-12-29T01:04:12;3.10;;;1.07;;
3341;SDS011;1684;50.748;6.154;2022-12-29T01:06:41;2.00;;;0.83;;
3341;SDS011;1684;50.748;6.154;2022-12-29T01:09:09;4.20;;;1.30;;
3341;SDS011;1684;50.748;6.154;2022-12-29T01:11:57;2.23;;;1.10;;
3341;SDS011;1684;50.748;6.154;2022-12-29T01:14:25;3.83;;;1.60;;
3341;SDS011;1684;50.748;6.154;2022-12-29T01:16:53;3.60;;;1.00;;
3341;SDS011;1684;50.748;6.154;2022-12-29T01:19:22;3.00;;;1.40;;
3341;SDS011;1684;50.748;6.154;2022-12-29T01:21:50;2.83;;;1.33;;
3341;SDS011;1684;50.748;6.154;2022-12-29T01:24:19;3.47;;;1.40;;
3341;SDS011;1684;50.748;6.154;2022-12-29T01:26:48;2.77;;;1.50;;
3341;SDS011;1684;50.748;6.154;2022-12-29T01:29:17;5.70;;;1.73;;
3341;SDS011;1684;50.748;6.154;2022-12-29T01:31:46;4.57;;;1.80;;
3341;SDS011;1684;50.748;6.154;2022-12-29T01:34:16;3.40;;;1.57;;
3341;SDS011;1684;50.748;6.154;2022-12-29T01:36:44;3.10;;;1.47;;
3341;SDS011;1684;50.748;6.154;2022-12-29T01:39:12;2.97;;;1.40;;
3341;SDS011;1684;50.748;6.154;2022-12-29T01:41:41;3.67;;;1.50;;
3341;SDS011;1684;50.748;6.154;2022-12-29T01:46:57;2.50;;;1.30;;
3341;SDS011;1684;50.748;6.154;2022-12-29T01:49:26;5.40;;;1.60;;
3341;SDS011;1684;50.748;6.154;2022-12-29T01:51:55;3.63;;;1.30;;
3341;SDS011;1684;50.748;6.154;2022-12-29T01:54:26;7.67;;;1.93;;
3341;SDS011;1684;50.748;6.154;2022-12-29T01:56:56;3.43;;;1.40;;
3341;SDS011;1684;50.748;6.154;2022-12-29T01:59:26;2.40;;;0.90;;
3341;SDS011;1684;50.748;6.154;2022-12-29T02:01:55;2.30;;;1.10;;
3341;SDS011;1684;50.748;6.154;2022-12-29T02:04:25;3.80;;;1.43;;
3341;SDS011;1684;50.748;6.154;2022-12-29T02:06:55;2.90;;;1.30;;
3341;SDS011;1684;50.748;6.154;2022-12-29T02:09:25;5.53;;;1.30;;
3341;SDS011;1684;50.748;6.154;2022-12-29T02:11:53;4.17;;;1.30;;
3341;SDS011;1684;50.748;6.154;2022-12-29T02:14:22;3.10;;;1.00;;
3341;SDS011;1684;50.748;6.154;2022-12-29T02:16:55;2.43;;;1.27;;
3341;SDS011;1684;50.748;6.154;2022-12-29T02:22:16;2.40;;;1.07;;
3341;SDS011;1684;50.748;6.154;2022-12-29T02:24:52;2.47;;;1.00;;
3341;SDS011;1684;50.748;6.154;2022-12-29T02:27:37;2.77;;;1.10;;
3341;SDS011;1684;50.748;6.154;2022-12-29T02:30:28;2.77;;;1.10;;
3341;SDS011;1684;50.748;6.154;2022-12-29T02:32:58;8.03;;;1.10;;
3341;SDS011;1684;50.748;6.154;2022-12-29T02:35:29;2.20;;;0.77;;
3341;SDS011;1684;50.748;6.154;2022-12-29T02:38:03;2.63;;;0.97;;
3341;SDS011;1684;50.748;6.154;2022-12-29T02:40:38;1.93;;;0.87;;
3341;SDS011;1684;50.748;6.154;2022-12-29T02:43:12;3.03;;;1.00;;
3341;SDS011;1684;50.748;6.154;2022-12-29T02:45:45;2.70;;;0.90;;
3341;SDS011;1684;50.748;6.154;2022-12-29T02:48:16;2.00;;;0.70;;
3341;SDS011;1684;50.748;6.154;2022-12-29T02:50:47;2.03;;;0.77;;
3341;SDS011;1684;50.748;6.154;2022-12-29T02:53:18;2.50;;;1.13;;
3341;SDS011;1684;50.748;6.154;2022-12-29T02:56:08;1.93;;;0.70;;
3341;SDS011;1684;50.748;6.154;2022-12-29T02:58:35;2.43;;;0.80;;
3341;SDS011;1684;50.748;6.154;2022-12-29T03:01:09;4.33;;;1.13;;
3341;SDS011;1684;50.748;6.154;2022-12-29T03:03:46;2.77;;;0.90;;
3341;SDS011;1684;50.748;6.154;2022-12-29T03:06:21;2.03;;;0.83;;
3341;SDS011;1684;50.748;6.154;2022-12-29T03:08:55;2.80;;;0.93;;
3341;SDS011;1684;50.748;6.154;2022-12-29T03:11:26;2.40;;;0.90;;
3341;SDS011;1684;50.748;6.154;2022-12-29T03:14:14;2.93;;;0.90;;
3341;SDS011;1684;50.748;6.154;2022-12-29T03:17:06;5.20;;;1.17;;
3341;SDS011;1684;50.748;6.154;2022-12-29T03:19:40;2.30;;;0.83;;
3341;SDS011;1684;50.748;6.154;2022-12-29T03:22:13;4.50;;;1.17;;
3341;SDS011;1684;50.748;6.154;2022-12-29T03:24:58;2.73;;;1.20;;
3341;SDS011;1684;50.748;6.154;2022-12-29T03:27:29;3.27;;;1.73;;
3341;SDS011;1684;50.748;6.154;2022-12-29T03:29:57;3.93;;;1.13;;
3341;SDS011;1684;50.748;6.154;2022-12-29T03:32:30;2.53;;;1.20;;
3341;SDS011;1684;50.748;6.154;2022-12-29T03:34:59;3.30;;;1.40;;
3341;SDS011;1684;50.748;6.154;2022-12-29T03:37:29;3.20;;;1.10;;
3341;SDS011;1684;50.748;6.154;2022-12-29T03:39:59;4.10;;;0.90;;
3341;SDS011;1684;50.748;6.154;2022-12-29T03:42:27;4.70;;;1.30;;
3341;SDS011;1684;50.748;6.154;2022-12-29T03:44:57;2.53;;;1.20;;
3341;SDS011;1684;50.748;6.154;2022-12-29T03:47:25;2.00;;;0.73;;
3341;SDS011;1684;50.748;6.154;2022-12-29T03:49:55;3.60;;;1.40;;
3341;SDS011;1684;50.748;6.154;2022-12-29T03:52:23;2.40;;;1.23;;
3341;SDS011;1684;50.748;6.154;2022-12-29T03:54:51;2.50;;;1.23;;
3341;SDS011;1684;50.748;6.154;2022-12-29T03:57:20;2.63;;;1.03;;
3341;SDS011;1684;50.748;6.154;2022-12-29T03:59:48;3.00;;;1.10;;
3341;SDS011;1684;50.748;6.154;2022-12-29T04:02:16;3.37;;;1.00;;
3341;SDS011;1684;50.748;6.154;2022-12-29T04:04:45;2.33;;;1.20;;
3341;SDS011;1684;50.748;6.154;2022-12-29T04:07:14;2.50;;;1.27;;
3341;SDS011;1684;50.748;6.154;2022-12-29T04:09:43;3.03;;;1.37;;
3341;SDS011;1684;50.748;6.154;2022-12-29T04:12:11;3.43;;;1.00;;
3341;SDS011;1684;50.748;6.154;2022-12-29T04:14:40;2.67;;;1.03;;
3341;SDS011;1684;50.748;6.154;2022-12-29T04:17:09;2.60;;;1.30;;
3341;SDS011;1684;50.748;6.154;2022-12-29T04:19:37;5.83;;;1.20;;
3341;SDS011;1684;50.748;6.154;2022-12-29T04:22:05;2.90;;;0.97;;
3341;SDS011;1684;50.748;6.154;2022-12-29T04:24:35;2.93;;;1.07;;
3341;SDS011;1684;50.748;6.154;2022-12-29T04:27:03;4.57;;;1.07;;
3341;SDS011;1684;50.748;6.154;2022-12-29T04:29:32;2.33;;;0.73;;
3341;SDS011;1684;50.748;6.154;2022-12-29T04:32:01;3.17;;;1.50;;
3341;SDS011;1684;50.748;6.154;2022-12-29T04:34:29;2.30;;;1.10;;
3341;SDS011;1684;50.748;6.154;2022-12-29T04:36:59;3.87;;;1.40;;
3341;SDS011;1684;50.748;6.154;2022-12-29T04:39:27;3.13;;;1.20;;
3341;SDS011;1684;50.748;6.154;2022-12-29T04:41:56;2.70;;;0.90;;
3341;SDS011;1684;50.748;6.154;2022-12-29T04:44:25;2.83;;;0.97;;
3341;SDS011;1684;50.748;6.154;2022-12-29T04:46:53;2.13;;;0.90;;
3341;SDS011;1684;50.748;6.154;2022-12-29T04:49:21;3.47;;;1.00;;
3341;SDS011;1684;50.748;6.154;2022-12-29T04:51:49;2.57;;;1.00;;
3341;SDS011;1684;50.748;6.154;2022-12-29T04:54:18;3.20;;;1.13;;
3341;SDS011;1684;50.748;6.154;2022-12-29T04:56:46;2.20;;;0.90;;
3341;SDS011;1684;50.748;6.154;2022-12-29T04:59:15;3.50;;;0.90;;
3341;SDS011;1684;50.748;6.154;2022-12-29T05:01:44;3.30;;;1.00;;
3341;SDS011;1684;50.748;6.154;2022-12-29T05:04:12;5.50;;;0.93;;
3341;SDS011;1684;50.748;6.154;2022-12-29T05:06:40;2.47;;;0.90;;
3341;SDS011;1684;50.748;6.154;2022-12-29T05:09:09;2.40;;;0.97;;
3341;SDS011;1684;50.748;6.154;2022-12-29T05:11:37;3.87;;;1.00;;
3341;SDS011;1684;50.748;6.154;2022-12-29T05:14:05;2.03;;;0.67;;
3341;SDS011;1684;50.748;6.154;2022-12-29T05:16:35;3.70;;;1.47;;
3341;SDS011;1684;50.748;6.154;2022-12-29T05:19:03;2.40;;;0.93;;
3341;SDS011;1684;50.748;6.154;2022-12-29T05:21:32;3.03;;;0.80;;
3341;SDS011;1684;50.748;6.154;2022-12-29T05:24:01;2.67;;;1.03;;
3341;SDS011;1684;50.748;6.154;2022-12-29T05:26:29;2.37;;;1.03;;
3341;SDS011;1684;50.748;6.154;2022-12-29T05:28:57;2.47;;;0.90;;
3341;SDS011;1684;50.748;6.154;2022-12-29T05:31:28;2.37;;;0.80;;
3341;SDS011;1684;50.748;6.154;2022-12-29T05:33:58;4.03;;;1.03;;
3341;SDS011;1684;50.748;6.154;2022-12-29T05:36:26;2.77;;;0.83;;
3341;SDS011;1684;50.748;6.154;2022-12-29T05:39:02;3.73;;;1.10;;
3341;SDS011;1684;50.748;6.154;2022-12-29T05:41:31;2.30;;;1.07;;
3341;SDS011;1684;50.748;6.154;2022-12-29T05:43:59;3.33;;;0.80;;
3341;SDS011;1684;50.748;6.154;2022-12-29T05:46:27;2.13;;;0.80;;
3341;SDS011;1684;50.748;6.154;2022-12-29T05:48:56;3.13;;;0.80;;
3341;SDS011;1684;50.748;6.154;2022-12-29T05:51:25;3.37;;;0.90;;
3341;SDS011;1684;50.748;6.154;2022-12-29T05:53:53;2.20;;;1.13;;
3341;SDS011;1684;50.748;6.154;2022-12-29T05:56:22;7.03;;;1.33;;
3341;SDS011;1684;50.748;6.154;2022-12-29T05:58:50;5.60;;;1.53;;
3341;SDS011;1684;50.748;6.154;2022-12-29T06:01:19;2.27;;;0.83;;
3341;SDS011;1684;50.748;6.154;2022-12-29T06:03:47;3.60;;;0.77;;
3341;SDS011;1684;50.748;6.154;2022-12-29T06:06:16;2.63;;;1.00;;
3341;SDS011;1684;50.748;6.154;2022-12-29T06:08:45;6.10;;;1.00;;
3341;SDS011;1684;50.748;6.154;2022-12-29T06:11:13;3.27;;;1.03;;
3341;SDS011;1684;50.748;6.154;2022-12-29T06:13:44;2.70;;;1.00;;
3341;SDS011;1684;50.748;6.154;2022-12-29T06:16:12;3.63;;;0.93;;
3341;SDS011;1684;50.748;6.154;2022-12-29T06:18:40;5.03;;;1.30;;
3341;SDS011;1684;50.748;6.154;2022-12-29T06:21:09;2.03;;;0.80;;
3341;SDS011;1684;50.748;6.154;2022-12-29T06:23:37;4.30;;;1.30;;
3341;SDS011;1684;50.748;6.154;2022-12-29T06:26:07;3.40;;;0.90;;
3341;SDS011;1684;50.748;6.154;2022-12-29T06:28:35;3.50;;;0.87;;
3341;SDS011;1684;50.748;6.154;2022-12-29T06:31:04;3.23;;;1.00;;
3341;SDS011;1684;50.748;6.154;2022-12-29T06:33:32;3.97;;;1.10;;
3341;SDS011;1684;50.748;6.154;2022-12-29T06:36:01;2.90;;;1.20;;
3341;SDS011;1684;50.748;6.154;2022-12-29T06:38:29;5.13;;;1.17;;
3341;SDS011;1684;50.748;6.154;2022-12-29T06:40:57;4.27;;;1.20;;
3341;SDS011;1684;50.748;6.154;2022-12-29T06:43:27;4.03;;;1.10;;
3341;SDS011;1684;50.748;6.154;2022-12-29T06:45:56;2.63;;;0.97;;
3341;SDS011;1684;50.748;6.154;2022-12-29T06:48:24;4.50;;;1.43;;
3341;SDS011;1684;50.748;6.154;2022-12-29T06:50:53;2.70;;;0.90;;
3341;SDS011;1684;50.748;6.154;2022-12-29T06:53:21;4.07;;;0.90;;
3341;SDS011;1684;50.748;6.154;2022-12-29T06:55:49;4.67;;;1.17;;
3341;SDS011;1684;50.748;6.154;2022-12-29T06:58:17;3.60;;;1.03;;
3341;SDS011;1684;50.748;6.154;2022-12-29T07:00:47;3.03;;;0.87;;
3341;SDS011;1684;50.748;6.154;2022-12-29T07:03:15;4.00;;;1.53;;
3341;SDS011;1684;50.748;6.154;2022-12-29T07:05:44;3.97;;;1.13;;
3341;SDS011;1684;50.748;6.154;2022-12-29T07:08:12;6.13;;;1.30;;
3341;SDS011;1684;50.748;6.154;2022-12-29T07:10:40;3.83;;;1.13;;
3341;SDS011;1684;50.748;6.154;2022-12-29T07:13:08;5.03;;;1.27;;
3341;SDS011;1684;50.748;6.154;2022-12-29T07:15:37;3.73;;;1.13;;
3341;SDS011;1684;50.748;6.154;2022-12-29T07:18:07;3.13;;;1.53;;
3341;SDS011;1684;50.748;6.154;2022-12-29T07:20:35;4.10;;;2.70;;
3341;SDS011;1684;50.748;6.154;2022-12-29T07:23:03;4.83;;;1.40;;
3341;SDS011;1684;50.748;6.154;2022-12-29T07:25:32;2.73;;;1.00;;
3341;SDS011;1684;50.748;6.154;2022-12-29T07:28:01;2.13;;;0.93;;
3341;SDS011;1684;50.748;6.154;2022-12-29T07:30:29;4.93;;;1.00;;
3341;SDS011;1684;50.748;6.154;2022-12-29T07:32:57;2.10;;;0.90;;
3341;SDS011;1684;50.748;6.154;2022-12-29T07:35:27;7.10;;;1.43;;
3341;SDS011;1684;50.748;6.154;2022-12-29T07:37:55;5.13;;;1.70;;
3341;SDS011;1684;50.748;6.154;2022-12-29T07:40:24;7.63;;;1.27;;
3341;SDS011;1684;50.748;6.154;2022-12-29T07:42:52;3.50;;;0.90;;
3341;SDS011;1684;50.748;6.154;2022-12-29T07:45:20;4.50;;;1.33;;
3341;SDS011;1684;50.748;6.154;2022-12-29T07:47:49;2.93;;;1.10;;
3341;SDS011;1684;50.748;6.154;2022-12-29T07:50:17;3.97;;;1.23;;
3341;SDS011;1684;50.748;6.154;2022-12-29T07:52:46;6.13;;;2.60;;
3341;SDS011;1684;50.748;6.154;2022-12-29T07:55:15;7.67;;;1.80;;
3341;SDS011;1684;50.748;6.154;2022-12-29T07:57:43;4.00;;;1.10;;
3341;SDS011;1684;50.748;6.154;2022-12-29T08:00:12;10.77;;;1.90;;
3341;SDS011;1684;50.748;6.154;2022-12-29T08:02:41;4.87;;;1.50;;
3341;SDS011;1684;50.748;6.154;2022-12-29T08:05:09;6.50;;;1.10;;
3341;SDS011;1684;50.748;6.154;2022-12-29T08:07:38;9.27;;;1.53;;
3341;SDS011;1684;50.748;6.154;2022-12-29T08:10:08;6.30;;;1.47;;
3341;SDS011;1684;50.748;6.154;2022-12-29T08:12:37;4.00;;;1.20;;
3341;SDS011;1684;50.748;6.154;2022-12-29T08:15:06;6.33;;;1.60;;
3341;SDS011;1684;50.748;6.154;2022-12-29T08:17:35;6.20;;;1.00;;
3341;SDS011;1684;50.748;6.154;2022-12-29T08:20:03;5.00;;;1.33;;
3341;SDS011;1684;50.748;6.154;2022-12-29T08:22:32;10.27;;;1.53;;
3341;SDS011;1684;50.748;6.154;2022-12-29T08:25:00;8.40;;;1.47;;
3341;SDS011;1684;50.748;6.154;2022-12-29T08:27:30;4.27;;;1.00;;
3341;SDS011;1684;50.748;6.154;2022-12-29T08:29:58;9.50;;;1.57;;
3341;SDS011;1684;50.748;6.154;2022-12-29T08:32:27;4.43;;;1.60;;
3341;SDS011;1684;50.748;6.154;2022-12-29T08:34:55;5.97;;;1.50;;
3341;SDS011;1684;50.748;6.154;2022-12-29T08:37:23;6.50;;;1.80;;
3341;SDS011;1684;50.748;6.154;2022-12-29T08:39:56;5.73;;;1.40;;
3341;SDS011;1684;50.748;6.154;2022-12-29T08:42:26;6.83;;;1.70;;
3341;SDS011;1684;50.748;6.154;2022-12-29T08:44:58;4.37;;;1.30;;
3341;SDS011;1684;50.748;6.154;2022-12-29T08:47:27;3.53;;;1.30;;
3341;SDS011;1684;50.748;6.154;2022-12-29T08:49:55;6.50;;;1.53;;
3341;SDS011;1684;50.748;6.154;2022-12-29T08:52:23;4.40;;;1.80;;
3341;SDS011;1684;50.748;6.154;2022-12-29T08:54:52;7.00;;;1.87;;
3341;SDS011;1684;50.748;6.154;2022-12-29T08:57:20;4.60;;;1.07;;
3341;SDS011;1684;50.748;6.154;2022-12-29T08:59:49;4.13;;;1.60;;
3341;SDS011;1684;50.748;6.154;2022-12-29T09:02:18;5.23;;;1.43;;
3341;SDS011;1684;50.748;6.154;2022-12-29T09:04:50;7.43;;;2.17;;
3341;SDS011;1684;50.748;6.154;2022-12-29T09:07:18;5.83;;;1.90;;
3341;SDS011;1684;50.748;6.154;2022-12-29T09:09:46;6.13;;;1.40;;
3341;SDS011;1684;50.748;6.154;2022-12-29T09:12:15;7.53;;;1.67;;
3341;SDS011;1684;50.748;6.154;2022-12-29T09:14:43;7.63;;;1.77;;
3341;SDS011;1684;50.748;6.154;2022-12-29T09:17:13;7.17;;;1.90;;
3341;SDS011;1684;50.748;6.154;2022-12-29T09:20:01;7.93;;;1.50;;
3341;SDS011;1684;50.748;6.154;2022-12-29T09:22:29;4.90;;;1.90;;
3341;SDS011;1684;50.748;6.154;2022-12-29T09:24:57;5.70;;;1.83;;
3341;SDS011;1684;50.748;6.154;2022-12-29T09:27:26;7.03;;;2.30;;
3341;SDS011;1684;50.748;6.154;2022-12-29T09:29:56;6.07;;;1.50;;
3341;SDS011;1684;50.748;6.154;2022-12-29T09:32:24;7.87;;;2.20;;
3341;SDS011;1684;50.748;6.154;2022-12-29T09:34:58;4.23;;;1.33;;
3341;SDS011;1684;50.748;6.154;2022-12-29T09:37:28;4.13;;;1.70;;
3341;SDS011;1684;50.748;6.154;2022-12-29T09:39:56;16.90;;;1.70;;
3341;SDS011;1684;50.748;6.154;2022-12-29T09:42:25;7.03;;;1.63;;
3341;SDS011;1684;50.748;6.154;2022-12-29T09:44:59;4.90;;;1.77;;
3341;SDS011;1684;50.748;6.154;2022-12-29T09:47:29;5.37;;;1.93;;
3341;SDS011;1684;50.748;6.154;2022-12-29T09:49:58;7.70;;;2.60;;
3341;SDS011;1684;50.748;6.154;2022-12-29T09:52:31;6.63;;;1.40;;
3341;SDS011;1684;50.748;6.154;2022-12-29T09:55:00;5.60;;;1.90;;
3341;SDS011;1684;50.748;6.154;2022-12-29T09:57:40;7.00;;;2.10;;
3341;SDS011;1684;50.748;6.154;2022-12-29T10:00:11;6.43;;;1.97;;
3341;SDS011;1684;50.748;6.154;2022-12-29T10:02:42;10.53;;;1.90;;
3341;SDS011;1684;50.748;6.154;2022-12-29T10:05:16;6.53;;;1.63;;
3341;SDS011;1684;50.748;6.154;2022-12-29T10:07:49;10.30;;;1.80;;
3341;SDS011;1684;50.748;6.154;2022-12-29T10:10:23;7.20;;;3.87;;
3341;SDS011;1684;50.748;6.154;2022-12-29T10:12:58;9.73;;;2.40;;
3341;SDS011;1684;50.748;6.154;2022-12-29T10:15:35;3.67;;;1.43;;
3341;SDS011;1684;50.748;6.154;2022-12-29T10:18:08;4.27;;;1.17;;
3341;SDS011;1684;50.748;6.154;2022-12-29T10:20:44;3.37;;;1.30;;
3341;SDS011;1684;50.748;6.154;2022-12-29T10:23:19;8.93;;;2.43;;
3341;SDS011;1684;50.748;6.154;2022-12-29T10:25:51;8.67;;;1.43;;
3341;SDS011;1684;50.748;6.154;2022-12-29T10:28:22;6.70;;;2.20;;
3341;SDS011;1684;50.748;6.154;2022-12-29T10:30:50;6.53;;;1.47;;
3341;SDS011;1684;50.748;6.154;2022-12-29T10:33:20;9.80;;;1.47;;
3341;SDS011;1684;50.748;6.154;2022-12-29T10:35:49;6.70;;;1.33;;
3341;SDS011;1684;50.748;6.154;2022-12-29T10:38:22;5.30;;;1.83;;
3341;SDS011;1684;50.748;6.154;2022-12-29T10:40:54;10.77;;;1.80;;
3341;SDS011;1684;50.748;6.154;2022-12-29T10:43:26;4.60;;;1.27;;
3341;SDS011;1684;50.748;6.154;2022-12-29T10:45:56;7.50;;;2.17;;
3341;SDS011;1684;50.748;6.154;2022-12-29T10:48:26;3.50;;;1.57;;
3341;SDS011;1684;50.748;6.154;2022-12-29T10:50:58;9.67;;;1.80;;
3341;SDS011;1684;50.748;6.154;2022-12-29T10:53:30;9.00;;;1.50;;
3341;SDS011;1684;50.748;6.154;2022-12-29T10:56:00;10.50;;;1.70;;
3341;SDS011;1684;50.748;6.154;2022-12-29T10:58:30;4.70;;;1.77;;
3341;SDS011;1684;50.748;6.154;2022-12-29T11:00:58;8.20;;;2.67;;
3341;SDS011;1684;50.748;6.154;2022-12-29T11:03:39;8.53;;;2.50;;
3341;SDS011;1684;50.748;6.154;2022-12-29T11:06:10;3.83;;;1.80;;
3341;SDS011;1684;50.748;6.154;2022-12-29T11:08:41;8.97;;;1.80;;
3341;SDS011;1684;50.748;6.154;2022-12-29T11:11:13;5.10;;;2.00;;
3341;SDS011;1684;50.748;6.154;2022-12-29T11:13:50;7.20;;;1.33;;
3341;SDS011;1684;50.748;6.154;2022-12-29T11:16:26;13.03;;;1.73;;
3341;SDS011;1684;50.748;6.154;2022-12-29T11:18:57;3.93;;;1.60;;
3341;SDS011;1684;50.748;6.154;2022-12-29T11:21:27;5.50;;;2.03;;
3341;SDS011;1684;50.748;6.154;2022-12-29T11:23:57;7.73;;;1.60;;
3341;SDS011;1684;50.748;6.154;2022-12-29T11:26:26;6.77;;;1.87;;
3341;SDS011;1684;50.748;6.154;2022-12-29T11:31:48;9.07;;;1.70;;
3341;SDS011;1684;50.748;6.154;2022-12-29T11:34:18;9.83;;;3.13;;
3341;SDS011;1684;50.748;6.154;2022-12-29T11:36:47;18.93;;;2.20;;
3341;SDS011;1684;50.748;6.154;2022-12-29T11:42:09;6.80;;;1.80;;
3341;SDS011;1684;50.748;6.154;2022-12-29T11:44:42;5.40;;;2.23;;
3341;SDS011;1684;50.748;6.154;2022-12-29T11:47:12;11.80;;;1.70;;
3341;SDS011;1684;50.748;6.154;2022-12-29T11:49:41;7.80;;;1.90;;
3341;SDS011;1684;50.748;6.154;2022-12-29T11:52:20;9.83;;;1.80;;
3341;SDS011;1684;50.748;6.154;2022-12-29T11:54:49;6.43;;;2.00;;
3341;SDS011;1684;50.748;6.154;2022-12-29T11:57:19;5.67;;;2.17;;
3341;SDS011;1684;50.748;6.154;2022-12-29T11:59:49;9.03;;;1.70;;
3341;SDS011;1684;50.748;6.154;2022-12-29T12:02:32;8.20;;;2.23;;
3341;SDS011;1684;50.748;6.154;2022-12-29T12:05:13;7.63;;;2.30;;
3341;SDS011;1684;50.748;6.154;2022-12-29T12:07:43;12.10;;;1.87;;
3341;SDS011;1684;50.748;6.154;2022-12-29T12:10:17;6.90;;;2.73;;
3341;SDS011;1684;50.748;6.154;2022-12-29T12:12:48;11.20;;;2.37;;
3341;SDS011;1684;50.748;6.154;2022-12-29T12:15:19;9.63;;;2.60;;
3341;SDS011;1684;50.748;6.154;2022-12-29T12:17:49;7.87;;;2.03;;
3341;SDS011;1684;50.748;6.154;2022-12-29T12:20:19;6.13;;;1.60;;
3341;SDS011;1684;50.748;6.154;2022-12-29T12:22:51;6.30;;;1.90;;
3341;SDS011;1684;50.748;6.154;2022-12-29T12:25:23;7.00;;;2.30;;
3341;SDS011;1684;50.748;6.154;2022-12-29T12:27:56;12.87;;;2.27;;
3341;SDS011;1684;50.748;6.154;2022-12-29T12:30:26;11.90;;;2.60;;
3341;SDS011;1684;50.748;6.154;2022-12-29T12:32:56;8.77;;;1.90;;
3341;SDS011;1684;50.748;6.154;2022-12-29T12:35:28;8.23;;;1.63;;
3341;SDS011;1684;50.748;6.154;2022-12-29T12:38:04;3.23;;;1.13;;
3341;SDS011;1684;50.748;6.154;2022-12-29T12:40:40;5.60;;;1.80;;
3341;SDS011;1684;50.748;6.154;2022-12-29T12:43:32;7.60;;;2.10;;
3341;SDS011;1684;50.748;6.154;2022-12-29T12:46:07;10.40;;;2.00;;
3341;SDS011;1684;50.748;6.154;2022-12-29T12:48:44;10.50;;;2.10;;
3341;SDS011;1684;50.748;6.154;2022-12-29T12:51:17;17.50;;;1.90;;
3341;SDS011;1684;50.748;6.154;2022-12-29T12:53:51;8.57;;;2.23;;
3341;SDS011;1684;50.748;6.154;2022-12-29T12:56:26;7.33;;;2.13;;
3341;SDS011;1684;50.748;6.154;2022-12-29T12:58:59;6.87;;;2.37;;
3341;SDS011;1684;50.748;6.154;2022-12-29T13:01:38;6.07;;;2.00;;
3341;SDS011;1684;50.748;6.154;2022-12-29T13:04:26;8.30;;;2.90;;
3341;SDS011;1684;50.748;6.154;2022-12-29T13:06:56;4.67;;;1.50;;
3341;SDS011;1684;50.748;6.154;2022-12-29T13:09:33;7.20;;;1.50;;
3341;SDS011;1684;50.748;6.154;2022-12-29T13:12:10;7.27;;;1.30;;
3341;SDS011;1684;50.748;6.154;2022-12-29T13:14:49;4.80;;;1.67;;
3341;SDS011;1684;50.748;6.154;2022-12-29T13:17:21;4.00;;;1.63;;
3341;SDS011;1684;50.748;6.154;2022-12-29T13:19:54;4.57;;;1.17;;
3341;SDS011;1684;50.748;6.154;2022-12-29T13:22:25;4.23;;;1.50;;
3341;SDS011;1684;50.748;6.154;2022-12-29T13:25:01;8.30;;;1.57;;
3341;SDS011;1684;50.748;6.154;2022-12-29T13:27:32;11.57;;;1.80;;
3341;SDS011;1684;50.748;6.154;2022-12-29T13:30:05;13.03;;;1.60;;
3341;SDS011;1684;50.748;6.154;2022-12-29T13:32:40;5.17;;;1.90;;
3341;SDS011;1684;50.748;6.154;2022-12-29T13:35:12;11.17;;;2.70;;
3341;SDS011;1684;50.748;6.154;2022-12-29T13:37:46;4.87;;;1.67;;
3341;SDS011;1684;50.748;6.154;2022-12-29T13:40:15;5.70;;;1.47;;
3341;SDS011;1684;50.748;6.154;2022-12-29T13:42:45;7.20;;;1.67;;
3341;SDS011;1684;50.748;6.154;2022-12-29T13:45:16;7.77;;;1.87;;
3341;SDS011;1684;50.748;6.154;2022-12-29T13:47:46;11.43;;;2.80;;
3341;SDS011;1684;50.748;6.154;2022-12-29T13:50:17;7.10;;;2.00;;
3341;SDS011;1684;50.748;6.154;2022-12-29T13:52:48;5.00;;;1.83;;
3341;SDS011;1684;50.748;6.154;2022-12-29T13:55:20;7.23;;;2.60;;
3341;SDS011;1684;50.748;6.154;2022-12-29T13:57:53;8.80;;;1.80;;
3341;SDS011;1684;50.748;6.154;2022-12-29T14:00:27;9.67;;;1.80;;
3341;SDS011;1684;50.748;6.154;2022-12-29T14:03:03;6.87;;;2.03;;
3341;SDS011;1684;50.748;6.154;2022-12-29T14:05:38;8.30;;;1.80;;
3341;SDS011;1684;50.748;6.154;2022-12-29T14:08:13;4.90;;;2.33;;
3341;SDS011;1684;50.748;6.154;2022-12-29T14:10:45;5.30;;;1.67;;
3341;SDS011;1684;50.748;6.154;2022-12-29T14:13:16;5.43;;;2.50;;
3341;SDS011;1684;50.748;6.154;2022-12-29T14:15:50;6.63;;;1.90;;
3341;SDS011;1684;50.748;6.154;2022-12-29T14:18:20;4.27;;;1.63;;
3341;SDS011;1684;50.748;6.154;2022-12-29T14:20:51;8.50;;;1.90;;
3341;SDS011;1684;50.748;6.154;2022-12-29T14:23:35;6.93;;;1.80;;
3341;SDS011;1684;50.748;6.154;2022-12-29T14:26:11;5.20;;;2.30;;
3341;SDS011;1684;50.748;6.154;2022-12-29T14:28:41;8.77;;;2.37;;
3341;SDS011;1684;50.748;6.154;2022-12-29T14:37:00;8.50;;;3.57;;
3341;SDS011;1684;50.748;6.154;2022-12-29T14:39:33;7.10;;;3.23;;
3341;SDS011;1684;50.748;6.154;2022-12-29T14:42:03;10.50;;;2.40;;
3341;SDS011;1684;50.748;6.154;2022-12-29T14:44:32;10.47;;;2.47;;
3341;SDS011;1684;50.748;6.154;2022-12-29T14:47:01;23.10;;;2.90;;
3341;SDS011;1684;50.748;6.154;2022-12-29T14:49:33;7.40;;;2.13;;
3341;SDS011;1684;50.748;6.154;2022-12-29T14:52:13;5.20;;;1.80;;
3341;SDS011;1684;50.748;6.154;2022-12-29T14:54:44;8.70;;;1.93;;
3341;SDS011;1684;50.748;6.154;2022-12-29T14:57:19;5.67;;;1.93;;
3341;SDS011;1684;50.748;6.154;2022-12-29T14:59:48;10.73;;;3.20;;
3341;SDS011;1684;50.748;6.154;2022-12-29T15:02:22;8.50;;;2.47;;
3341;SDS011;1684;50.748;6.154;2022-12-29T15:04:51;5.93;;;2.23;;
3341;SDS011;1684;50.748;6.154;2022-12-29T15:07:21;10.23;;;2.60;;
3341;SDS011;1684;50.748;6.154;2022-12-29T15:09:51;7.60;;;2.70;;
3341;SDS011;1684;50.748;6.154;2022-12-29T15:12:23;13.23;;;2.77;;
3341;SDS011;1684;50.748;6.154;2022-12-29T15:14:57;8.63;;;2.43;;
3341;SDS011;1684;50.748;6.154;2022-12-29T15:17:26;7.10;;;1.90;;
3341;SDS011;1684;50.748;6.154;2022-12-29T15:19:55;8.60;;;3.00;;
3341;SDS011;1684;50.748;6.154;2022-12-29T15:22:25;8.60;;;2.20;;
3341;SDS011;1684;50.748;6.154;2022-12-29T15:24:54;4.13;;;1.77;;
3341;SDS011;1684;50.748;6.154;2022-12-29T15:27:23;5.17;;;2.17;;
3341;SDS011;1684;50.748;6.154;2022-12-29T15:29:56;8.00;;;2.63;;
3341;SDS011;1684;50.748;6.154;2022-12-29T15:32:25;8.43;;;2.23;;
3341;SDS011;1684;50.748;6.154;2022-12-29T15:34:54;8.13;;;2.63;;
3341;SDS011;1684;50.748;6.154;2022-12-29T15:37:26;5.57;;;1.63;;
3341;SDS011;1684;50.748;6.154;2022-12-29T15:39:55;9.87;;;2.17;;
3341;SDS011;1684;50.748;6.154;2022-12-29T15:42:35;8.73;;;2.27;;
3341;SDS011;1684;50.748;6.154;2022-12-29T15:45:08;10.27;;;2.80;;
3341;SDS011;1684;50.748;6.154;2022-12-29T15:47:38;8.10;;;2.50;;
3341;SDS011;1684;50.748;6.154;2022-12-29T15:50:09;15.30;;;5.77;;
3341;SDS011;1684;50.748;6.154;2022-12-29T15:52:43;16.93;;;13.07;;
3341;SDS011;1684;50.748;6.154;2022-12-29T15:55:21;19.73;;;12.50;;
3341;SDS011;1684;50.748;6.154;2022-12-29T15:57:55;10.97;;;5.23;;